Time;durP1;ratioP1;P1;durP2;ratioP2;P2;SDS_P1;SDS_P2;PMS_P1;PMS_P2;Temp;Humidity;BMP_temperature;BMP_pressure;BME280_temperature;BME280_humidity;BME280_pressure;Samples;Min_cycle;Max_cycle;Signal;HPM_P1;HPM_P2
2023/07/30 00:00:43;;;;;;;2.93;2.13;;;;;;;;;;4970823;28;20496;-54
2023/07/30 00:03:11;;;;;;;8.50;2.17;;;;;;;;;;4970726;28;21025;-54
2023/07/30 00:05:38;;;;;;;3.87;2.17;;;;;;;;;;4969835;28;20457;-54
2023/07/30 00:08:05;;;;;;;4.93;1.73;;;;;;;;;;4969589;28;20555;-55
2023/07/30 00:10:33;;;;;;;3.23;2.00;;;;;;;;;;4969585;28;20479;-55
2023/07/30 00:13:01;;;;;;;3.70;1.80;;;;;;;;;;4969929;28;20449;-54
2023/07/30 00:15:28;;;;;;;3.03;1.90;;;;;;;;;;4969842;28;20909;-54
2023/07/30 00:17:56;;;;;;;2.83;1.70;;;;;;;;;;4969067;28;20539;-55
2023/07/30 00:20:24;;;;;;;3.27;1.80;;;;;;;;;;4970510;28;20519;-55
2023/07/30 00:22:51;;;;;;;3.60;2.60;;;;;;;;;;4971034;28;20536;-54
2023/07/30 00:25:18;;;;;;;3.37;1.90;;;;;;;;;;4971216;28;20895;-55
2023/07/30 00:27:45;;;;;;;6.00;2.47;;;;;;;;;;4971213;28;20548;-55
2023/07/30 00:30:13;;;;;;;4.23;2.33;;;;;;;;;;4970616;28;20917;-55
2023/07/30 00:32:43;;;;;;;2.97;1.67;;;;;;;;;;4971150;28;21008;-54
2023/07/30 00:35:12;;;;;;;2.80;1.90;;;;;;;;;;4970645;28;20449;-55
2023/07/30 00:37:39;;;;;;;3.03;2.00;;;;;;;;;;4970820;28;20477;-55
2023/07/30 00:40:07;;;;;;;3.23;1.70;;;;;;;;;;4970818;28;20524;-54
2023/07/30 00:42:34;;;;;;;2.50;1.77;;;;;;;;;;4970966;28;20865;-55
2023/07/30 00:45:03;;;;;;;3.80;1.87;;;;;;;;;;4970815;28;20480;-56
2023/07/30 00:47:30;;;;;;;2.80;1.80;;;;;;;;;;4970117;28;20473;-56
2023/07/30 00:49:57;;;;;;;4.13;1.80;;;;;;;;;;4970275;28;20504;-56
2023/07/30 00:52:27;;;;;;;3.17;1.60;;;;;;;;;;4970940;28;20484;-54
2023/07/30 00:54:55;;;;;;;4.57;1.77;;;;;;;;;;4971388;28;20528;-55
2023/07/30 00:57:23;;;;;;;4.63;1.90;;;;;;;;;;4970573;28;20548;-55
2023/07/30 00:59:50;;;;;;;3.47;1.80;;;;;;;;;;4973544;28;20489;-56
2023/07/30 01:02:18;;;;;;;3.30;1.90;;;;;;;;;;4974440;28;21053;-54
2023/07/30 01:04:45;;;;;;;4.80;1.57;;;;;;;;;;4974114;28;20525;-54
2023/07/30 01:07:12;;;;;;;3.00;2.00;;;;;;;;;;4974149;28;20500;-56
2023/07/30 01:09:41;;;;;;;2.30;1.60;;;;;;;;;;4973589;28;20480;-55
2023/07/30 01:12:09;;;;;;;5.90;1.70;;;;;;;;;;4974167;28;20528;-56
2023/07/30 01:14:38;;;;;;;4.47;2.37;;;;;;;;;;4974043;28;20496;-53
2023/07/30 01:17:06;;;;;;;3.60;1.90;;;;;;;;;;4973577;28;20469;-53
2023/07/30 01:19:33;;;;;;;4.00;1.43;;;;;;;;;;4973803;28;20441;-54
2023/07/30 01:22:01;;;;;;;3.40;1.63;;;;;;;;;;4973636;28;20888;-55
2023/07/30 01:24:29;;;;;;;2.70;1.40;;;;;;;;;;4973491;28;20476;-54
2023/07/30 01:26:58;;;;;;;6.03;1.87;;;;;;;;;;4973901;28;20555;-54
2023/07/30 01:29:28;;;;;;;2.93;1.87;;;;;;;;;;4973170;28;20445;-56
2023/07/30 01:31:57;;;;;;;3.23;1.90;;;;;;;;;;4973674;28;21056;-55
2023/07/30 01:34:25;;;;;;;3.47;2.20;;;;;;;;;;4974078;28;20449;-53
2023/07/30 01:36:53;;;;;;;4.43;2.20;;;;;;;;;;4972680;28;20544;-56
2023/07/30 01:39:22;;;;;;;6.63;2.37;;;;;;;;;;4971785;28;21057;-56
2023/07/30 01:41:49;;;;;;;3.40;2.23;;;;;;;;;;4972450;28;20449;-55
2023/07/30 01:44:16;;;;;;;4.23;1.97;;;;;;;;;;4972711;28;20609;-54
2023/07/30 01:46:44;;;;;;;3.10;2.23;;;;;;;;;;4972590;28;20683;-55
2023/07/30 01:49:11;;;;;;;3.13;2.20;;;;;;;;;;4972104;28;20480;-55
2023/07/30 01:51:38;;;;;;;3.90;2.57;;;;;;;;;;4972855;28;20612;-56
2023/07/30 01:54:05;;;;;;;4.40;2.87;;;;;;;;;;4973219;28;20536;-54
2023/07/30 01:56:34;;;;;;;3.67;2.33;;;;;;;;;;4973243;28;20897;-54
2023/07/30 01:59:01;;;;;;;3.50;2.60;;;;;;;;;;4973372;28;20536;-53
2023/07/30 02:01:28;;;;;;;4.50;2.43;;;;;;;;;;4973239;28;20892;-54
2023/07/30 02:03:56;;;;;;;3.17;2.30;;;;;;;;;;4973621;28;20531;-54
2023/07/30 02:06:23;;;;;;;4.50;1.90;;;;;;;;;;4972711;28;20460;-55
2023/07/30 02:08:50;;;;;;;4.97;2.03;;;;;;;;;;5047219;23;21078;-57
2023/07/30 02:11:17;;;;;;;2.60;1.87;;;;;;;;;;4991227;28;20563;-56
2023/07/30 02:13:46;;;;;;;2.77;1.60;;;;;;;;;;4992581;28;20479;-57
2023/07/30 02:16:13;;;;;;;3.20;1.97;;;;;;;;;;4992845;28;20535;-57
2023/07/30 02:18:40;;;;;;;3.77;2.60;;;;;;;;;;4992194;28;20938;-57
2023/07/30 02:21:08;;;;;;;4.17;2.00;;;;;;;;;;4998755;28;20530;-57
2023/07/30 02:23:35;;;;;;;3.03;2.07;;;;;;;;;;4978836;28;20548;-57
2023/07/30 02:26:02;;;;;;;3.53;2.47;;;;;;;;;;4972916;28;21017;-57
2023/07/30 02:28:29;;;;;;;4.30;2.57;;;;;;;;;;4972593;28;20552;-56
2023/07/30 02:30:58;;;;;;;3.63;2.53;;;;;;;;;;4972559;28;20547;-57
2023/07/30 02:33:25;;;;;;;3.30;2.13;;;;;;;;;;4973042;28;21009;-57
2023/07/30 02:35:52;;;;;;;4.23;2.30;;;;;;;;;;4972688;28;20477;-56
2023/07/30 02:38:20;;;;;;;3.43;2.23;;;;;;;;;;4980266;28;20468;-57
2023/07/30 02:40:47;;;;;;;4.00;2.40;;;;;;;;;;4991937;28;20468;-56
2023/07/30 02:43:14;;;;;;;3.13;2.40;;;;;;;;;;4991695;28;20534;-57
2023/07/30 02:45:41;;;;;;;5.60;2.10;;;;;;;;;;4992015;28;20528;-57
2023/07/30 02:48:10;;;;;;;2.87;2.10;;;;;;;;;;4987223;28;20937;-57
2023/07/30 02:50:37;;;;;;;3.87;2.27;;;;;;;;;;4981195;28;20566;-56
2023/07/30 02:53:04;;;;;;;4.97;1.97;;;;;;;;;;4991605;28;20551;-56
2023/07/30 02:55:32;;;;;;;3.00;2.20;;;;;;;;;;4990124;28;20539;-57
2023/07/30 02:57:59;;;;;;;2.90;2.27;;;;;;;;;;4991396;28;20567;-56
2023/07/30 03:00:26;;;;;;;4.27;2.00;;;;;;;;;;4991372;28;21223;-57
2023/07/30 03:02:53;;;;;;;4.40;2.23;;;;;;;;;;4991716;28;20531;-57
2023/07/30 03:05:22;;;;;;;4.27;2.77;;;;;;;;;;4987235;28;20475;-56
2023/07/30 03:07:49;;;;;;;6.50;4.43;;;;;;;;;;4990897;28;20511;-57
2023/07/30 03:10:16;;;;;;;3.53;2.50;;;;;;;;;;4987816;28;20507;-56
2023/07/30 03:12:44;;;;;;;5.20;3.67;;;;;;;;;;4985153;28;20481;-56
2023/07/30 03:15:11;;;;;;;3.73;2.43;;;;;;;;;;4971826;28;20472;-57
2023/07/30 03:17:38;;;;;;;4.00;2.53;;;;;;;;;;4971928;28;20503;-57
2023/07/30 03:20:06;;;;;;;3.53;1.90;;;;;;;;;;4986556;28;20452;-56
2023/07/30 03:22:35;;;;;;;4.17;2.77;;;;;;;;;;4990817;28;21035;-56
2023/07/30 03:25:02;;;;;;;4.10;2.57;;;;;;;;;;4982570;28;20552;-56
2023/07/30 03:27:29;;;;;;;5.17;2.20;;;;;;;;;;4978950;28;20464;-56
2023/07/30 03:29:57;;;;;;;3.53;2.53;;;;;;;;;;4982486;28;20965;-57
2023/07/30 03:32:24;;;;;;;3.33;1.90;;;;;;;;;;4971744;28;20491;-56
2023/07/30 03:34:51;;;;;;;4.10;2.83;;;;;;;;;;4980930;28;20526;-57
2023/07/30 03:37:18;;;;;;;3.17;1.93;;;;;;;;;;4977128;28;20560;-57
2023/07/30 03:39:47;;;;;;;3.80;1.97;;;;;;;;;;4976678;28;20560;-57
2023/07/30 03:42:14;;;;;;;3.73;1.87;;;;;;;;;;4971611;28;20519;-56
2023/07/30 03:44:41;;;;;;;5.00;2.60;;;;;;;;;;4978857;28;20540;-57
2023/07/30 03:47:09;;;;;;;4.30;1.93;;;;;;;;;;4971700;28;20547;-57
2023/07/30 03:49:37;;;;;;;4.03;3.10;;;;;;;;;;4979048;28;20888;-57
2023/07/30 03:52:04;;;;;;;3.90;2.00;;;;;;;;;;4979755;28;20489;-57
2023/07/30 03:54:32;;;;;;;4.43;3.20;;;;;;;;;;4989531;28;20503;-57
2023/07/30 03:57:00;;;;;;;3.90;3.00;;;;;;;;;;4990913;28;20908;-56
2023/07/30 03:59:28;;;;;;;15.57;4.73;;;;;;;;;;4988699;28;20475;-56
2023/07/30 04:01:55;;;;;;;5.87;2.10;;;;;;;;;;4977672;28;20449;-57
2023/07/30 04:04:22;;;;;;;2.90;2.00;;;;;;;;;;4971318;28;20460;-55
2023/07/30 04:06:50;;;;;;;3.90;2.50;;;;;;;;;;4978269;28;20476;-57
2023/07/30 04:09:17;;;;;;;3.17;2.67;;;;;;;;;;4971191;28;20537;-54
2023/07/30 04:11:44;;;;;;;5.57;2.93;;;;;;;;;;4971542;28;20563;-57
2023/07/30 04:14:13;;;;;;;3.27;2.23;;;;;;;;;;4971691;28;20985;-57
2023/07/30 04:16:40;;;;;;;3.23;2.30;;;;;;;;;;4970359;28;20549;-57
2023/07/30 04:19:07;;;;;;;3.20;2.63;;;;;;;;;;4971354;28;20540;-54
2023/07/30 04:21:34;;;;;;;2.70;2.30;;;;;;;;;;4970527;28;21006;-57
2023/07/30 04:24:02;;;;;;;2.93;2.07;;;;;;;;;;4971498;28;20479;-57
2023/07/30 04:26:29;;;;;;;2.87;2.43;;;;;;;;;;4971419;28;20441;-57
2023/07/30 04:28:56;;;;;;;4.67;2.47;;;;;;;;;;4971051;28;20519;-57
2023/07/30 04:31:25;;;;;;;3.73;2.43;;;;;;;;;;4970764;28;20560;-57
2023/07/30 04:33:52;;;;;;;4.20;3.07;;;;;;;;;;4973109;28;20484;-57
2023/07/30 04:36:19;;;;;;;3.60;2.50;;;;;;;;;;4975222;28;20527;-57
2023/07/30 04:38:46;;;;;;;5.20;2.63;;;;;;;;;;4975238;28;20464;-57
2023/07/30 04:41:14;;;;;;;2.80;2.37;;;;;;;;;;4974662;28;20483;-56
2023/07/30 04:43:41;;;;;;;3.23;2.30;;;;;;;;;;4974544;28;20507;-56
2023/07/30 04:46:08;;;;;;;5.33;2.40;;;;;;;;;;4974436;28;20659;-57
2023/07/30 04:48:38;;;;;;;3.83;1.87;;;;;;;;;;4974590;28;20587;-57
2023/07/30 04:51:05;;;;;;;4.47;2.80;;;;;;;;;;4974908;28;20559;-57
2023/07/30 04:53:33;;;;;;;3.40;1.97;;;;;;;;;;4974679;28;20494;-57
2023/07/30 04:56:00;;;;;;;3.10;2.10;;;;;;;;;;4974631;28;20452;-56
2023/07/30 04:58:27;;;;;;;3.67;2.20;;;;;;;;;;4974317;28;20551;-57
2023/07/30 05:00:54;;;;;;;5.00;2.27;;;;;;;;;;4974449;28;21017;-56
2023/07/30 05:03:22;;;;;;;2.73;2.20;;;;;;;;;;4974569;28;20531;-57
2023/07/30 05:05:50;;;;;;;3.97;2.30;;;;;;;;;;4974559;28;20452;-57
2023/07/30 05:08:21;;;;;;;3.27;2.40;;;;;;;;;;4974424;28;20551;-57
2023/07/30 05:10:51;;;;;;;3.37;2.13;;;;;;;;;;4974142;28;20699;-57
2023/07/30 05:13:18;;;;;;;3.77;2.60;;;;;;;;;;4974277;28;20472;-57
2023/07/30 05:15:45;;;;;;;7.10;2.90;;;;;;;;;;4974501;28;20472;-57
2023/07/30 05:18:13;;;;;;;3.80;3.20;;;;;;;;;;4973510;28;20519;-56
2023/07/30 05:20:40;;;;;;;3.17;2.53;;;;;;;;;;4984887;28;21019;-57
2023/07/30 05:23:09;;;;;;;2.70;1.90;;;;;;;;;;4993255;28;20535;-57
2023/07/30 05:25:36;;;;;;;3.43;2.20;;;;;;;;;;4993513;28;20447;-57
2023/07/30 05:28:06;;;;;;;5.60;2.80;;;;;;;;;;4993317;28;20551;-57
2023/07/30 05:30:33;;;;;;;3.17;2.47;;;;;;;;;;4993382;28;20448;-57
2023/07/30 05:33:00;;;;;;;5.27;2.93;;;;;;;;;;4993307;28;20516;-57
2023/07/30 05:35:28;;;;;;;3.97;2.13;;;;;;;;;;4993789;28;20444;-56
2023/07/30 05:37:55;;;;;;;3.47;2.60;;;;;;;;;;4993176;28;20506;-57
2023/07/30 05:40:25;;;;;;;5.23;2.50;;;;;;;;;;4992914;28;20578;-57
2023/07/30 05:42:53;;;;;;;3.90;2.50;;;;;;;;;;4993296;28;20526;-57
2023/07/30 05:45:20;;;;;;;3.73;2.50;;;;;;;;;;4991370;28;20531;-57
2023/07/30 05:47:49;;;;;;;3.10;1.83;;;;;;;;;;4993041;28;20500;-56
2023/07/30 05:50:17;;;;;;;3.30;2.63;;;;;;;;;;4992696;28;20472;-57
2023/07/30 05:52:44;;;;;;;3.83;2.60;;;;;;;;;;4993123;28;20511;-56
2023/07/30 05:55:11;;;;;;;5.83;3.07;;;;;;;;;;5006448;28;20955;-57
2023/07/30 05:57:40;;;;;;;5.37;2.50;;;;;;;;;;5012644;28;20895;-57
2023/07/30 06:00:08;;;;;;;4.57;2.83;;;;;;;;;;5012307;28;20546;-57
2023/07/30 06:02:35;;;;;;;3.73;2.90;;;;;;;;;;5012263;28;20529;-56
2023/07/30 06:05:02;;;;;;;6.50;3.80;;;;;;;;;;5012558;28;20526;-57
2023/07/30 06:07:29;;;;;;;3.80;3.23;;;;;;;;;;5012192;28;20561;-57
2023/07/30 06:09:57;;;;;;;5.53;3.00;;;;;;;;;;5012215;28;20522;-56
2023/07/30 06:12:24;;;;;;;4.67;3.10;;;;;;;;;;5012416;28;20920;-57
2023/07/30 06:14:52;;;;;;;3.33;2.60;;;;;;;;;;5012425;28;20577;-57
2023/07/30 06:17:20;;;;;;;3.50;2.30;;;;;;;;;;5011743;28;20495;-57
2023/07/30 06:19:48;;;;;;;3.40;2.60;;;;;;;;;;5011952;28;20451;-57
2023/07/30 06:22:15;;;;;;;3.80;2.80;;;;;;;;;;5011632;28;20501;-57
2023/07/30 06:24:42;;;;;;;4.60;2.60;;;;;;;;;;5012037;28;20497;-57
2023/07/30 06:27:10;;;;;;;4.50;2.57;;;;;;;;;;5012128;28;20804;-58
2023/07/30 06:29:39;;;;;;;5.00;3.23;;;;;;;;;;5011653;28;20661;-57
2023/07/30 06:32:09;;;;;;;3.40;2.67;;;;;;;;;;4992286;28;20476;-56
2023/07/30 06:34:37;;;;;;;5.93;2.67;;;;;;;;;;4982721;28;20468;-56
2023/07/30 06:37:04;;;;;;;3.80;2.57;;;;;;;;;;4982326;28;20500;-57
2023/07/30 06:39:34;;;;;;;3.60;2.60;;;;;;;;;;4980789;28;20929;-57
2023/07/30 06:42:01;;;;;;;3.97;2.57;;;;;;;;;;4982074;28;20525;-57
2023/07/30 06:44:28;;;;;;;3.60;2.53;;;;;;;;;;4980295;28;20961;-57
2023/07/30 06:46:55;;;;;;;4.57;2.53;;;;;;;;;;4981714;28;20995;-57
2023/07/30 06:49:24;;;;;;;3.97;2.87;;;;;;;;;;4981711;28;20934;-57
2023/07/30 06:51:52;;;;;;;3.97;2.50;;;;;;;;;;4980801;28;20504;-57
2023/07/30 06:54:19;;;;;;;3.73;2.53;;;;;;;;;;4981891;28;21022;-57
2023/07/30 06:56:46;;;;;;;3.50;2.30;;;;;;;;;;4981874;28;20465;-57
2023/07/30 06:59:14;;;;;;;3.57;2.70;;;;;;;;;;4979503;28;21030;-57
2023/07/30 07:01:41;;;;;;;3.87;2.47;;;;;;;;;;4980421;28;20459;-58
2023/07/30 07:04:08;;;;;;;2.97;2.30;;;;;;;;;;4981610;28;20451;-57
2023/07/30 07:06:37;;;;;;;5.13;2.80;;;;;;;;;;4979755;28;20437;-57
2023/07/30 07:09:04;;;;;;;3.73;2.37;;;;;;;;;;4979423;28;20563;-57
2023/07/30 07:11:34;;;;;;;3.50;2.30;;;;;;;;;;4981139;28;20842;-56
2023/07/30 07:14:01;;;;;;;3.20;2.23;;;;;;;;;;4981100;28;20515;-57
2023/07/30 07:16:28;;;;;;;3.70;2.77;;;;;;;;;;4979814;28;20980;-57
2023/07/30 07:18:55;;;;;;;3.07;2.37;;;;;;;;;;4981844;28;20543;-57
2023/07/30 07:21:23;;;;;;;3.40;2.43;;;;;;;;;;4980935;28;20468;-57
2023/07/30 07:23:51;;;;;;;5.70;3.03;;;;;;;;;;4980118;28;20898;-57
2023/07/30 07:26:18;;;;;;;3.20;2.13;;;;;;;;;;4981694;28;20534;-57
2023/07/30 07:28:46;;;;;;;3.90;2.77;;;;;;;;;;4986922;28;20818;-57
2023/07/30 07:31:13;;;;;;;3.53;2.53;;;;;;;;;;4990962;28;21006;-57
2023/07/30 07:33:41;;;;;;;3.80;2.03;;;;;;;;;;4990672;28;21031;-58
2023/07/30 07:36:09;;;;;;;3.00;2.17;;;;;;;;;;4981537;28;20527;-57
2023/07/30 07:38:36;;;;;;;6.50;2.80;;;;;;;;;;4981637;28;20508;-57
2023/07/30 07:41:05;;;;;;;4.30;2.70;;;;;;;;;;4988430;28;20475;-57
2023/07/30 07:43:32;;;;;;;3.20;2.57;;;;;;;;;;4981389;28;20548;-57
2023/07/30 07:45:59;;;;;;;3.57;2.27;;;;;;;;;;4984072;28;20464;-57
2023/07/30 07:48:27;;;;;;;4.33;2.23;;;;;;;;;;4987115;28;20542;-57
2023/07/30 07:50:54;;;;;;;4.43;2.70;;;;;;;;;;4967626;28;20528;-57
2023/07/30 07:53:21;;;;;;;3.03;2.10;;;;;;;;;;4968460;28;20567;-57
2023/07/30 07:55:48;;;;;;;3.87;2.60;;;;;;;;;;4968601;28;20456;-57
2023/07/30 07:58:17;;;;;;;3.90;2.53;;;;;;;;;;4968665;28;21024;-57
2023/07/30 08:00:44;;;;;;;3.30;2.50;;;;;;;;;;4968235;28;20799;-57
2023/07/30 08:03:11;;;;;;;3.40;2.10;;;;;;;;;;4968292;28;21006;-57
2023/07/30 08:05:39;;;;;;;4.27;2.20;;;;;;;;;;4968772;28;20522;-56
2023/07/30 08:08:06;;;;;;;3.00;1.60;;;;;;;;;;4990732;23;21020;-56
2023/07/30 08:10:33;;;;;;;3.33;1.97;;;;;;;;;;4990880;28;20518;-56
2023/07/30 08:13:00;;;;;;;2.87;1.97;;;;;;;;;;4991773;28;20574;-56
2023/07/30 08:15:29;;;;;;;3.40;1.90;;;;;;;;;;4991911;28;20467;-54
2023/07/30 08:17:56;;;;;;;2.93;1.87;;;;;;;;;;4991391;28;20464;-53
2023/07/30 08:20:23;;;;;;;2.70;1.90;;;;;;;;;;4976672;28;20543;-56
2023/07/30 08:22:50;;;;;;;3.03;1.97;;;;;;;;;;4971939;28;20469;-56
2023/07/30 08:25:18;;;;;;;7.53;5.70;;;;;;;;;;4972216;28;20473;-56
2023/07/30 08:27:45;;;;;;;2.47;1.80;;;;;;;;;;4972150;28;20476;-56
2023/07/30 08:30:13;;;;;;;2.80;1.90;;;;;;;;;;4972050;28;20539;-55
2023/07/30 08:32:43;;;;;;;4.57;2.07;;;;;;;;;;4972440;28;20519;-55
2023/07/30 08:35:10;;;;;;;3.13;2.13;;;;;;;;;;4972090;28;20975;-56
2023/07/30 08:37:38;;;;;;;4.07;2.20;;;;;;;;;;4971764;28;20922;-55
2023/07/30 08:40:05;;;;;;;3.27;2.43;;;;;;;;;;4971779;28;20544;-55
2023/07/30 08:42:33;;;;;;;2.83;2.50;;;;;;;;;;4972151;28;20442;-55
2023/07/30 08:45:01;;;;;;;2.27;2.07;;;;;;;;;;4973626;28;20451;-55
2023/07/30 08:47:28;;;;;;;3.13;2.37;;;;;;;;;;4991270;28;20448;-55
2023/07/30 08:49:58;;;;;;;3.93;2.40;;;;;;;;;;4976863;28;20503;-54
2023/07/30 08:52:26;;;;;;;3.90;2.50;;;;;;;;;;4973287;28;20516;-55
2023/07/30 08:54:55;;;;;;;2.90;2.03;;;;;;;;;;4989229;28;20482;-55
2023/07/30 08:57:23;;;;;;;3.37;2.30;;;;;;;;;;4982215;28;20444;-55
2023/07/30 08:59:51;;;;;;;3.67;2.30;;;;;;;;;;4987398;28;20939;-55
2023/07/30 09:02:20;;;;;;;3.00;2.30;;;;;;;;;;4989629;28;20475;-55
2023/07/30 09:04:49;;;;;;;2.97;2.33;;;;;;;;;;4989884;28;20452;-55
2023/07/30 09:07:17;;;;;;;3.67;2.73;;;;;;;;;;4998722;28;20448;-55
2023/07/30 09:09:45;;;;;;;5.13;2.40;;;;;;;;;;4990239;28;20577;-55
2023/07/30 09:12:14;;;;;;;3.73;2.40;;;;;;;;;;4990025;28;20863;-54
2023/07/30 09:14:44;;;;;;;4.27;2.37;;;;;;;;;;4984355;28;20474;-55
2023/07/30 09:17:12;;;;;;;2.80;1.90;;;;;;;;;;4979206;28;20864;-55
2023/07/30 09:19:39;;;;;;;4.07;2.60;;;;;;;;;;4970409;28;20444;-55
2023/07/30 09:22:07;;;;;;;4.07;2.90;;;;;;;;;;4970490;28;21069;-55
2023/07/30 09:24:36;;;;;;;3.10;2.47;;;;;;;;;;4975875;28;20547;-55
2023/07/30 09:27:04;;;;;;;2.80;2.50;;;;;;;;;;4990609;28;20444;-55
2023/07/30 09:29:31;;;;;;;3.60;2.40;;;;;;;;;;4989956;28;21099;-55
2023/07/30 09:31:58;;;;;;;3.10;2.60;;;;;;;;;;4990376;28;20472;-55
2023/07/30 09:34:25;;;;;;;3.17;2.53;;;;;;;;;;4988850;28;20948;-55
2023/07/30 09:36:53;;;;;;;3.73;3.00;;;;;;;;;;4990036;28;20675;-55
2023/07/30 09:39:21;;;;;;;3.53;2.73;;;;;;;;;;4978208;28;20558;-55
2023/07/30 09:41:50;;;;;;;4.20;2.87;;;;;;;;;;4989730;28;21034;-55
2023/07/30 09:44:18;;;;;;;3.20;2.80;;;;;;;;;;4982985;28;20533;-55
2023/07/30 09:46:46;;;;;;;3.63;2.83;;;;;;;;;;4979082;28;20545;-55
2023/07/30 09:49:13;;;;;;;3.77;2.77;;;;;;;;;;4983936;28;20497;-54
2023/07/30 09:51:41;;;;;;;3.70;2.80;;;;;;;;;;4980752;28;20563;-55
2023/07/30 09:54:08;;;;;;;3.10;2.67;;;;;;;;;;4987805;28;20935;-54
2023/07/30 09:56:36;;;;;;;3.50;2.87;;;;;;;;;;4989151;28;20880;-55
2023/07/30 09:59:04;;;;;;;3.23;2.33;;;;;;;;;;4978424;28;20552;-54
2023/07/30 10:01:32;;;;;;;3.90;2.70;;;;;;;;;;4989491;28;20562;-55
2023/07/30 10:03:59;;;;;;;4.67;2.10;;;;;;;;;;4986489;28;20523;-54
2023/07/30 10:06:28;;;;;;;4.60;2.77;;;;;;;;;;4989597;28;20531;-54
2023/07/30 10:08:56;;;;;;;3.80;2.10;;;;;;;;;;4989162;28;20486;-55
2023/07/30 10:11:24;;;;;;;3.10;2.60;;;;;;;;;;4974724;28;20484;-54
2023/07/30 10:13:52;;;;;;;3.93;2.70;;;;;;;;;;4977287;28;20472;-54
2023/07/30 10:16:20;;;;;;;4.50;2.70;;;;;;;;;;4976248;28;20527;-54
2023/07/30 10:18:54;;;;;;;4.10;2.77;;;;;;;;;;4974891;28;20489;-55
2023/07/30 10:21:24;;;;;;;3.33;2.33;;;;;;;;;;4974035;28;20453;-54
2023/07/30 10:23:59;;;;;;;3.10;2.47;;;;;;;;;;4973739;28;20625;-55
2023/07/30 10:26:29;;;;;;;3.10;2.20;;;;;;;;;;4980824;28;20523;-55
2023/07/30 10:29:11;;;;;;;3.00;2.30;;;;;;;;;;4984732;28;20464;-55
2023/07/30 10:31:43;;;;;;;3.07;2.53;;;;;;;;;;4972087;28;20452;-54
2023/07/30 10:34:11;;;;;;;3.00;2.30;;;;;;;;;;4972154;28;20570;-55
2023/07/30 10:36:42;;;;;;;3.57;2.10;;;;;;;;;;4973222;28;20535;-56
2023/07/30 10:39:14;;;;;;;3.03;2.50;;;;;;;;;;4972218;28;20464;-55
2023/07/30 10:41:41;;;;;;;2.90;2.40;;;;;;;;;;4973123;28;20536;-55
2023/07/30 10:44:08;;;;;;;4.10;2.70;;;;;;;;;;4972048;28;20469;-55
2023/07/30 10:46:35;;;;;;;3.17;2.20;;;;;;;;;;4972318;28;20459;-55
2023/07/30 10:49:06;;;;;;;3.07;2.13;;;;;;;;;;4979394;28;20575;-55
2023/07/30 10:51:34;;;;;;;3.00;2.20;;;;;;;;;;4972736;28;20489;-55
2023/07/30 10:54:02;;;;;;;3.10;2.00;;;;;;;;;;4967326;28;20784;-55
2023/07/30 10:56:29;;;;;;;3.10;2.27;;;;;;;;;;4976787;28;20476;-55
2023/07/30 10:58:56;;;;;;;2.97;1.80;;;;;;;;;;4975964;28;21060;-55
2023/07/30 11:01:27;;;;;;;2.27;1.43;;;;;;;;;;4980753;28;20875;-55
2023/07/30 11:03:54;;;;;;;2.70;1.43;;;;;;;;;;4976882;28;20439;-56
2023/07/30 11:06:26;;;;;;;2.57;1.20;;;;;;;;;;4976989;28;20452;-54
2023/07/30 11:08:54;;;;;;;2.40;1.40;;;;;;;;;;4975177;28;20964;-55
2023/07/30 11:11:24;;;;;;;6.63;1.60;;;;;;;;;;4984371;28;20536;-54
2023/07/30 11:13:51;;;;;;;2.13;1.40;;;;;;;;;;4988804;28;20476;-55
2023/07/30 11:16:19;;;;;;;2.57;1.57;;;;;;;;;;4987986;28;20547;-55
2023/07/30 11:18:47;;;;;;;2.20;1.57;;;;;;;;;;4987268;28;20502;-55
2023/07/30 11:21:16;;;;;;;2.40;1.40;;;;;;;;;;4981394;28;20553;-55
2023/07/30 11:23:45;;;;;;;2.83;1.80;;;;;;;;;;4977768;28;21078;-55
2023/07/30 11:26:15;;;;;;;2.80;1.70;;;;;;;;;;4977437;28;20476;-56
2023/07/30 11:28:42;;;;;;;2.67;1.60;;;;;;;;;;4985827;28;20559;-56
2023/07/30 11:31:10;;;;;;;2.70;1.80;;;;;;;;;;4988109;28;21007;-55
2023/07/30 11:33:38;;;;;;;4.03;3.00;;;;;;;;;;4988340;28;20511;-55
2023/07/30 11:36:05;;;;;;;7.77;3.30;;;;;;;;;;4988472;28;20550;-56
2023/07/30 11:38:33;;;;;;;3.50;2.50;;;;;;;;;;4986369;28;21018;-54
2023/07/30 11:41:02;;;;;;;4.13;3.03;;;;;;;;;;4982464;28;20838;-56
2023/07/30 11:43:30;;;;;;;3.17;2.47;;;;;;;;;;4980606;28;20553;-55
2023/07/30 11:46:14;;;;;;;3.13;2.20;;;;;;;;;;4986194;28;20567;-56
2023/07/30 11:48:42;;;;;;;3.43;1.90;;;;;;;;;;4975165;28;20578;-55
2023/07/30 11:51:19;;;;;;;2.70;2.13;;;;;;;;;;4970381;28;20494;-55
2023/07/30 11:53:47;;;;;;;3.10;2.13;;;;;;;;;;4968329;28;20512;-55
2023/07/30 11:56:23;;;;;;;3.30;2.00;;;;;;;;;;4968382;28;20591;-56
2023/07/30 11:58:50;;;;;;;3.07;1.93;;;;;;;;;;4968255;28;20495;-55
2023/07/30 12:01:18;;;;;;;2.90;2.20;;;;;;;;;;4968764;28;20448;-55
2023/07/30 12:03:45;;;;;;;3.30;1.80;;;;;;;;;;4968617;28;20449;-56
2023/07/30 12:06:13;;;;;;;3.20;2.03;;;;;;;;;;4968727;28;20482;-56
2023/07/30 12:08:40;;;;;;;2.60;1.70;;;;;;;;;;4968294;28;20520;-55
2023/07/30 12:11:09;;;;;;;3.30;2.60;;;;;;;;;;4968621;28;20532;-56
2023/07/30 12:13:43;;;;;;;3.40;1.80;;;;;;;;;;4968883;28;20508;-55
2023/07/30 12:16:11;;;;;;;2.67;1.57;;;;;;;;;;4968119;28;20949;-56
2023/07/30 12:18:39;;;;;;;2.80;1.60;;;;;;;;;;4968377;28;20473;-55
2023/07/30 12:21:07;;;;;;;2.60;1.83;;;;;;;;;;4968359;28;20453;-56
2023/07/30 12:23:35;;;;;;;2.60;1.43;;;;;;;;;;4968451;28;20445;-56
2023/07/30 12:26:04;;;;;;;2.20;1.30;;;;;;;;;;4968348;28;20528;-55
2023/07/30 12:28:31;;;;;;;2.30;1.30;;;;;;;;;;4968290;28;20504;-56
2023/07/30 12:30:59;;;;;;;2.77;1.53;;;;;;;;;;4968192;28;20489;-55
2023/07/30 12:33:27;;;;;;;3.63;2.47;;;;;;;;;;4968397;28;20984;-56
2023/07/30 12:35:54;;;;;;;3.63;1.80;;;;;;;;;;4968545;28;20543;-56
2023/07/30 12:38:21;;;;;;;3.63;2.43;;;;;;;;;;4974001;28;20495;-56
2023/07/30 12:40:49;;;;;;;3.50;2.27;;;;;;;;;;4976461;28;20481;-55
2023/07/30 12:43:16;;;;;;;2.47;1.57;;;;;;;;;;4975041;28;20891;-56
2023/07/30 12:45:43;;;;;;;2.67;1.50;;;;;;;;;;4979313;28;20531;-56
2023/07/30 12:48:12;;;;;;;2.00;1.10;;;;;;;;;;4975582;28;20492;-54
2023/07/30 12:50:39;;;;;;;2.10;1.20;;;;;;;;;;4980181;28;20524;-55
2023/07/30 12:53:06;;;;;;;2.30;1.10;;;;;;;;;;4976845;28;20543;-56
2023/07/30 12:55:33;;;;;;;2.10;1.27;;;;;;;;;;4985944;28;20931;-56
2023/07/30 12:58:00;;;;;;;2.20;1.13;;;;;;;;;;4984458;28;20540;-54
2023/07/30 13:00:28;;;;;;;2.23;1.20;;;;;;;;;;4983349;28;20550;-55
2023/07/30 13:02:56;;;;;;;3.10;1.67;;;;;;;;;;4984579;28;20540;-56
2023/07/30 13:05:25;;;;;;;2.70;1.40;;;;;;;;;;4984778;28;20883;-54
2023/07/30 13:07:52;;;;;;;2.63;1.27;;;;;;;;;;4984747;28;21011;-56
2023/07/30 13:10:20;;;;;;;2.30;1.30;;;;;;;;;;4983626;28;20520;-56
2023/07/30 13:12:47;;;;;;;1.97;1.00;;;;;;;;;;4982863;28;20945;-57
2023/07/30 13:15:14;;;;;;;2.97;1.33;;;;;;;;;;4981084;28;20504;-56
2023/07/30 13:17:41;;;;;;;2.70;1.43;;;;;;;;;;4982056;28;20519;-56
2023/07/30 13:20:09;;;;;;;2.27;1.20;;;;;;;;;;4984215;28;20535;-56
2023/07/30 13:22:38;;;;;;;3.13;1.50;;;;;;;;;;4980619;28;20627;-56
2023/07/30 13:25:05;;;;;;;3.20;1.40;;;;;;;;;;4982981;28;20515;-54
2023/07/30 13:27:33;;;;;;;2.40;1.50;;;;;;;;;;4984909;28;20459;-56
2023/07/30 13:30:00;;;;;;;2.30;1.33;;;;;;;;;;4981332;28;20574;-56
2023/07/30 13:32:27;;;;;;;2.50;1.33;;;;;;;;;;4981420;28;20540;-56
2023/07/30 13:34:54;;;;;;;2.27;1.30;;;;;;;;;;4982514;28;20559;-55
2023/07/30 13:37:22;;;;;;;2.20;1.43;;;;;;;;;;4979059;28;20441;-55
2023/07/30 13:39:50;;;;;;;2.70;1.60;;;;;;;;;;4980154;28;20530;-55
2023/07/30 13:42:17;;;;;;;2.20;1.40;;;;;;;;;;4978395;28;20463;-55
2023/07/30 13:44:45;;;;;;;2.23;1.20;;;;;;;;;;4975465;28;20465;-56
2023/07/30 13:47:12;;;;;;;2.00;1.10;;;;;;;;;;4982703;28;20476;-56
2023/07/30 13:49:39;;;;;;;15.83;4.10;;;;;;;;;;4984414;28;20729;-56
2023/07/30 13:52:07;;;;;;;2.40;1.40;;;;;;;;;;4990085;28;20991;-56
2023/07/30 13:54:34;;;;;;;2.47;1.20;;;;;;;;;;4993244;28;20511;-56
2023/07/30 13:57:03;;;;;;;2.90;1.30;;;;;;;;;;4992550;28;20526;-57
2023/07/30 13:59:30;;;;;;;2.50;1.50;;;;;;;;;;4989510;28;20566;-56
2023/07/30 14:01:58;;;;;;;2.97;1.13;;;;;;;;;;4987245;28;20476;-56
2023/07/30 14:04:25;;;;;;;2.23;1.30;;;;;;;;;;4991702;28;21063;-56
2023/07/30 14:06:52;;;;;;;3.50;1.90;;;;;;;;;;4991924;28;20482;-57
2023/07/30 14:09:19;;;;;;;3.30;1.60;;;;;;;;;;5011824;23;20593;-56
2023/07/30 14:11:47;;;;;;;3.30;1.73;;;;;;;;;;5004359;28;21086;-56
2023/07/30 14:14:15;;;;;;;3.03;1.33;;;;;;;;;;5005518;28;20493;-56
2023/07/30 14:16:42;;;;;;;2.70;1.43;;;;;;;;;;5007960;28;20542;-57
2023/07/30 14:19:10;;;;;;;2.73;1.47;;;;;;;;;;5006381;28;20895;-54
2023/07/30 14:21:37;;;;;;;3.23;1.50;;;;;;;;;;5006216;28;20545;-57
2023/07/30 14:24:04;;;;;;;2.60;1.37;;;;;;;;;;5006075;28;20522;-56
2023/07/30 14:26:31;;;;;;;2.53;1.37;;;;;;;;;;5007014;28;20470;-56
2023/07/30 14:28:59;;;;;;;2.27;1.60;;;;;;;;;;5007606;28;20959;-56
2023/07/30 14:31:27;;;;;;;2.40;1.50;;;;;;;;;;5007312;28;20534;-56
2023/07/30 14:33:54;;;;;;;2.50;1.20;;;;;;;;;;5007958;28;20439;-56
2023/07/30 14:36:22;;;;;;;4.00;1.37;;;;;;;;;;5007825;28;20543;-56
2023/07/30 14:38:49;;;;;;;2.13;1.30;;;;;;;;;;5007168;28;21065;-56
2023/07/30 14:41:16;;;;;;;2.30;1.47;;;;;;;;;;5004889;28;20971;-56
2023/07/30 14:43:43;;;;;;;2.97;1.70;;;;;;;;;;5007579;28;20997;-56
2023/07/30 14:46:13;;;;;;;2.20;1.40;;;;;;;;;;5007176;28;20478;-56